createdAt,value
2023-10-06T00:00:49.458Z,100568.48
2023-10-06T00:03:17.574Z,100566.83
2023-10-06T00:05:45.716Z,100566.37
2023-10-06T00:08:16.741Z,100558.48
2023-10-06T00:10:53.192Z,100559.23
2023-10-06T00:13:25.058Z,100557.70
2023-10-06T00:15:52.718Z,100561.72
2023-10-06T00:18:21.451Z,100558.64
2023-10-06T00:20:57.065Z,100560.95
2023-10-06T00:23:28.539Z,100555.46
2023-10-06T00:25:56.780Z,100551.70
2023-10-06T00:28:28.181Z,100547.42
2023-10-06T00:31:02.705Z,100549.86
2023-10-06T00:33:38.745Z,100544.84
2023-10-06T00:36:19.932Z,100543.13
2023-10-06T00:38:57.346Z,100539.55
2023-10-06T00:41:28.048Z,100536.83
2023-10-06T00:43:56.647Z,100536.15
2023-10-06T00:46:25.055Z,100531.34
2023-10-06T00:48:57.605Z,100530.14
2023-10-06T00:51:27.329Z,100531.55
2023-10-06T00:53:58.998Z,100534.85
2023-10-06T00:56:29.006Z,100529.34
2023-10-06T00:58:57.261Z,100529.34
2023-10-06T01:01:25.088Z,100526.05
2023-10-06T01:04:11.298Z,100527.96
2023-10-06T01:06:40.556Z,100524.71
2023-10-06T01:09:15.065Z,100520.74
2023-10-06T01:11:53.036Z,100519.73
2023-10-06T01:14:27.584Z,100520.59
2023-10-06T01:17:05.750Z,100517.12
2023-10-06T01:19:36.768Z,100517.31
2023-10-06T01:22:26.063Z,100515.41
2023-10-06T01:24:56.660Z,100514.56
2023-10-06T01:27:27.674Z,100512.68
2023-10-06T01:30:16.030Z,100515.80
2023-10-06T01:32:46.960Z,100510.77
2023-10-06T01:35:14.850Z,100511.13
2023-10-06T01:37:46.238Z,100513.71
2023-10-06T01:40:20.176Z,100513.71
2023-10-06T01:42:49.634Z,100514.23
2023-10-06T01:45:20.547Z,100514.92
2023-10-06T01:47:58.159Z,100513.21
2023-10-06T01:50:28.817Z,100515.99
2023-10-06T01:53:00.089Z,100514.10
2023-10-06T01:55:28.038Z,100515.35
2023-10-06T01:57:55.656Z,100512.08
2023-10-06T02:00:28.181Z,100515.57
2023-10-06T02:02:55.878Z,100516.80
2023-10-06T02:05:23.458Z,100516.33
2023-10-06T02:07:52.919Z,100514.48
2023-10-06T02:10:20.486Z,100508.11
2023-10-06T02:12:48.120Z,100509.19
2023-10-06T02:15:16.197Z,100506.61
2023-10-06T02:17:44.370Z,100514.26
2023-10-06T02:20:27.117Z,100512.71
2023-10-06T02:23:01.073Z,100512.37
2023-10-06T02:25:33.091Z,100521.31
2023-10-06T02:28:06.293Z,100517.69
2023-10-06T02:30:38.942Z,100515.94
2023-10-06T02:33:06.810Z,100515.73
2023-10-06T02:35:41.565Z,100514.88
2023-10-06T02:38:09.688Z,100514.02
2023-10-06T02:40:46.498Z,100512.80
2023-10-06T02:43:21.963Z,100515.58
2023-10-06T02:45:49.652Z,100512.10
2023-10-06T02:50:08.798Z,100499.27
2023-10-06T02:52:43.321Z,100500.27
2023-10-06T02:55:12.164Z,100493.80
2023-10-06T02:57:40.311Z,100496.71
2023-10-06T03:00:26.600Z,100496.19
2023-10-06T03:03:04.472Z,100491.66
2023-10-06T03:05:40.230Z,100485.61
2023-10-06T03:08:10.896Z,100482.32
2023-10-06T03:10:45.988Z,100478.52
2023-10-06T03:13:17.483Z,100479.40
2023-10-06T03:15:48.303Z,100478.55
2023-10-06T03:18:17.849Z,100477.70
2023-10-06T03:20:49.282Z,100479.09
2023-10-06T03:23:39.146Z,100477.56
2023-10-06T03:26:14.952Z,100472.39
2023-10-06T03:28:49.964Z,100473.42
2023-10-06T03:31:20.449Z,100474.28
2023-10-06T03:33:53.610Z,100477.39
2023-10-06T03:36:50.368Z,100476.67
2023-10-06T03:39:24.164Z,100474.20
2023-10-06T03:41:54.125Z,100472.96
2023-10-06T03:44:27.386Z,100472.41
2023-10-06T03:46:56.763Z,100474.77
2023-10-06T03:49:27.335Z,100471.94
2023-10-06T03:51:57.405Z,100468.58
2023-10-06T03:54:27.836Z,100460.70
2023-10-06T03:56:55.433Z,100457.70
2023-10-06T03:59:24.874Z,100458.56
2023-10-06T04:01:53.248Z,100458.07
2023-10-06T04:04:24.113Z,100449.95
2023-10-06T04:06:52.120Z,100450.13
2023-10-06T04:09:29.874Z,100452.02
2023-10-06T04:12:02.802Z,100452.70
2023-10-06T04:14:33.191Z,100443.67
2023-10-06T04:17:02.860Z,100444.31
2023-10-06T04:19:30.627Z,100440.14
2023-10-06T04:21:58.281Z,100435.94
2023-10-06T04:24:25.822Z,100435.16
2023-10-06T04:26:53.449Z,100430.73
2023-10-06T04:29:21.001Z,100429.59
2023-10-06T04:31:49.176Z,100434.17
2023-10-06T04:34:16.898Z,100432.84
2023-10-06T04:36:44.456Z,100434.27
2023-10-06T04:39:17.327Z,100435.02
2023-10-06T04:41:44.927Z,100435.47
2023-10-06T04:44:12.581Z,100437.25
2023-10-06T04:46:41.174Z,100438.54
2023-10-06T04:49:09.189Z,100438.23
2023-10-06T04:51:36.910Z,100440.08
2023-10-06T04:54:09.371Z,100436.17
2023-10-06T04:56:37.237Z,100436.36
2023-10-06T04:59:07.298Z,100434.64
2023-10-06T05:01:35.382Z,100434.70
2023-10-06T05:04:07.538Z,100434.20
2023-10-06T05:06:35.168Z,100435.27
2023-10-06T05:09:04.077Z,100438.21
2023-10-06T05:11:34.189Z,100440.48
2023-10-06T05:14:02.762Z,100445.47
2023-10-06T05:16:30.653Z,100452.55
2023-10-06T05:18:58.364Z,100453.06
2023-10-06T05:21:26.029Z,100454.50
2023-10-06T05:23:54.681Z,100452.48
2023-10-06T05:26:22.660Z,100454.27
2023-10-06T05:28:52.081Z,100453.91
2023-10-06T05:31:19.973Z,100454.56
2023-10-06T05:33:47.826Z,100456.73
2023-10-06T05:36:19.309Z,100459.05
2023-10-06T05:38:49.022Z,100458.00
2023-10-06T05:41:16.986Z,100460.08
2023-10-06T05:43:44.902Z,100460.50
2023-10-06T05:46:13.034Z,100459.94
2023-10-06T05:48:41.562Z,100461.80
2023-10-06T05:51:16.445Z,100459.94
2023-10-06T05:53:45.539Z,100461.24
2023-10-06T05:56:13.902Z,100460.72
2023-10-06T05:58:42.536Z,100459.78
2023-10-06T06:01:20.414Z,100460.49
2023-10-06T06:03:49.001Z,100458.73
2023-10-06T06:06:18.185Z,100455.73
2023-10-06T06:08:49.671Z,100455.88
2023-10-06T06:11:17.787Z,100461.92
2023-10-06T06:13:52.779Z,100460.94
2023-10-06T06:16:27.000Z,100459.52
2023-10-06T06:18:54.636Z,100457.05
2023-10-06T06:21:26.535Z,100453.39
2023-10-06T06:23:57.355Z,100445.40
2023-10-06T06:26:25.545Z,100443.06
2023-10-06T06:28:54.526Z,100437.86
2023-10-06T06:31:22.614Z,100437.53
2023-10-06T06:33:58.644Z,100434.57
2023-10-06T06:36:27.925Z,100431.92
2023-10-06T06:38:55.732Z,100427.64
2023-10-06T06:41:23.539Z,100423.01
2023-10-06T06:43:55.972Z,100417.64
2023-10-06T06:46:23.576Z,100415.10
2023-10-06T06:48:51.158Z,100411.82
2023-10-06T06:51:19.943Z,100409.27
2023-10-06T06:53:48.790Z,100410.98
2023-10-06T06:56:18.517Z,100412.21
2023-10-06T06:58:47.874Z,100408.04
2023-10-06T07:01:17.427Z,100407.58
2023-10-06T07:03:45.185Z,100397.13
2023-10-06T07:06:18.001Z,100398.98
2023-10-06T07:08:46.746Z,100394.71
2023-10-06T07:11:14.633Z,100397.25
2023-10-06T07:13:43.670Z,100397.02
2023-10-06T07:16:11.492Z,100394.23
2023-10-06T07:18:39.365Z,100392.22
2023-10-06T07:21:10.650Z,100392.89
2023-10-06T07:23:41.211Z,100399.88
2023-10-06T07:26:12.609Z,100406.23
2023-10-06T07:28:41.447Z,100408.07
2023-10-06T07:31:14.022Z,100412.60
2023-10-06T07:33:42.852Z,100409.45
2023-10-06T07:36:19.054Z,100404.44
2023-10-06T07:38:47.482Z,100407.06
2023-10-06T07:41:19.393Z,100401.46
2023-10-06T07:43:49.965Z,100405.73
2023-10-06T07:46:18.234Z,100404.17
2023-10-06T07:48:47.407Z,100395.98
2023-10-06T07:51:15.255Z,100398.60
2023-10-06T07:53:45.197Z,100399.71
2023-10-06T07:56:13.352Z,100399.05
2023-10-06T07:58:44.811Z,100396.23
2023-10-06T08:01:14.824Z,100395.02
2023-10-06T08:03:42.939Z,100392.41
2023-10-06T08:06:12.309Z,100395.17
2023-10-06T08:08:40.026Z,100395.10
2023-10-06T08:11:08.026Z,100393.18
2023-10-06T08:13:36.274Z,100385.50
2023-10-06T08:16:04.352Z,100375.98
2023-10-06T08:18:31.958Z,100369.67
2023-10-06T08:21:02.489Z,100370.48
2023-10-06T08:23:33.825Z,100378.89
2023-10-06T08:26:02.996Z,100374.73
2023-10-06T08:28:33.200Z,100374.04
2023-10-06T08:31:04.954Z,100370.66
2023-10-06T08:33:33.485Z,100366.66
2023-10-06T08:36:03.144Z,100365.79
2023-10-06T08:38:32.253Z,100361.27
2023-10-06T08:41:02.695Z,100358.98
2023-10-06T08:43:30.873Z,100361.30
2023-10-06T08:46:01.344Z,100362.13
2023-10-06T08:48:33.356Z,100364.85
2023-10-06T08:51:04.694Z,100355.48
2023-10-06T08:53:32.738Z,100349.89
2023-10-06T08:56:00.612Z,100347.33
2023-10-06T08:58:28.481Z,100341.81
2023-10-06T09:00:57.338Z,100347.30
2023-10-06T09:03:28.213Z,100346.80
2023-10-06T09:05:56.679Z,100344.83
2023-10-06T09:08:25.205Z,100338.87
2023-10-06T09:10:53.154Z,100338.31
2023-10-06T09:13:22.189Z,100340.25
2023-10-06T09:15:57.937Z,100338.37
2023-10-06T09:18:29.064Z,100341.31
2023-10-06T09:21:21.373Z,100336.02
2023-10-06T09:23:50.644Z,100342.31
2023-10-06T09:26:29.471Z,100350.61
2023-10-06T09:28:57.611Z,100347.77
2023-10-06T09:31:38.432Z,100345.27
2023-10-06T09:34:10.114Z,100345.27
2023-10-06T09:36:44.852Z,100340.45
2023-10-06T09:39:18.968Z,100335.84
2023-10-06T09:41:49.266Z,100334.48
2023-10-06T09:44:19.484Z,100334.44
2023-10-06T09:46:47.425Z,100326.67
2023-10-06T09:49:19.776Z,100323.64
2023-10-06T09:51:47.571Z,100326.88
2023-10-06T09:54:16.056Z,100325.79
2023-10-06T09:56:44.024Z,100326.23
2023-10-06T09:59:15.300Z,100322.52
2023-10-06T10:01:49.215Z,100318.81
2023-10-06T10:04:17.112Z,100317.37
2023-10-06T10:06:45.763Z,100314.10
2023-10-06T10:09:18.431Z,100311.33
2023-10-06T10:11:57.699Z,100304.06
2023-10-06T10:14:56.425Z,100309.27
2023-10-06T10:17:36.900Z,100310.27
2023-10-06T10:20:10.676Z,100306.85
2023-10-06T10:22:42.100Z,100304.99
2023-10-06T10:27:41.291Z,100305.61
2023-10-06T10:30:13.897Z,100307.48
2023-10-06T10:32:43.165Z,100301.14
2023-10-06T10:35:14.850Z,100304.87
2023-10-06T10:37:57.331Z,100303.38
2023-10-06T10:40:30.082Z,100301.36
2023-10-06T10:43:07.704Z,100295.91
2023-10-06T10:45:45.014Z,100297.34
2023-10-06T10:48:16.961Z,100293.36
2023-10-06T10:51:04.469Z,100295.88
2023-10-06T10:53:45.277Z,100287.67
2023-10-06T10:56:16.314Z,100287.52
2023-10-06T10:58:45.402Z,100283.73
2023-10-06T11:01:31.358Z,100288.15
2023-10-06T11:04:14.456Z,100286.45
2023-10-06T11:06:44.217Z,100278.48
2023-10-06T11:09:27.997Z,100272.58
2023-10-06T11:12:11.750Z,100268.23
2023-10-06T11:14:44.837Z,100271.84
2023-10-06T11:17:13.459Z,100269.32
2023-10-06T11:19:41.407Z,100273.75
2023-10-06T11:22:13.154Z,100277.85
2023-10-06T11:24:41.461Z,100272.31
2023-10-06T11:27:13.399Z,100267.02
2023-10-06T11:29:41.101Z,100271.09
2023-10-06T11:32:09.006Z,100263.52
2023-10-06T11:34:36.840Z,100264.38
2023-10-06T11:37:06.394Z,100264.02
2023-10-06T11:39:33.994Z,100257.98
2023-10-06T11:42:26.670Z,100256.83
2023-10-06T11:44:54.635Z,100252.84
2023-10-06T11:47:36.947Z,100256.86
2023-10-06T11:50:07.036Z,100251.02
2023-10-06T11:52:34.853Z,100249.83
2023-10-06T11:55:09.915Z,100251.48
2023-10-06T11:57:47.515Z,100245.39
2023-10-06T12:00:18.773Z,100252.27
2023-10-06T12:02:52.929Z,100249.75
2023-10-06T12:05:23.079Z,100244.74
2023-10-06T12:07:53.760Z,100241.95
2023-10-06T12:10:22.588Z,100236.57
2023-10-06T12:12:53.439Z,100233.91
2023-10-06T12:15:21.818Z,100234.49
2023-10-06T12:17:51.963Z,100238.59
2023-10-06T12:20:20.398Z,100236.82
2023-10-06T12:22:48.411Z,100228.60
2023-10-06T12:25:23.699Z,100231.54
2023-10-06T12:27:51.625Z,100232.83
2023-10-06T12:30:19.449Z,100243.44
2023-10-06T12:32:47.329Z,100241.29
2023-10-06T12:35:20.076Z,100238.50
2023-10-06T12:37:48.116Z,100240.12
2023-10-06T12:40:16.737Z,100240.92
2023-10-06T12:42:44.780Z,100235.42
2023-10-06T12:45:22.073Z,100223.48
2023-10-06T12:47:50.308Z,100228.04
2023-10-06T12:50:20.230Z,100238.17
2023-10-06T12:52:54.270Z,100238.41
2023-10-06T12:55:28.725Z,100236.27
2023-10-06T12:57:56.385Z,100233.05
2023-10-06T13:00:24.046Z,100231.45
2023-10-06T13:02:52.051Z,100235.09
2023-10-06T13:05:24.494Z,100234.98
2023-10-06T13:07:52.987Z,100228.98
2023-10-06T13:10:24.310Z,100227.49
2023-10-06T13:12:52.246Z,100225.82
2023-10-06T13:15:20.801Z,100226.65
2023-10-06T13:17:51.788Z,100230.86
2023-10-06T13:20:19.622Z,100232.03
2023-10-06T13:22:50.852Z,100228.37
2023-10-06T13:25:19.416Z,100236.52
2023-10-06T13:27:49.190Z,100231.62
2023-10-06T13:30:20.406Z,100238.73
2023-10-06T13:32:53.186Z,100230.34
2023-10-06T13:35:21.448Z,100246.15
2023-10-06T13:37:49.700Z,100243.02
2023-10-06T13:40:18.919Z,100243.97
2023-10-06T13:42:50.109Z,100249.02
2023-10-06T13:45:24.730Z,100245.39
2023-10-06T13:47:56.292Z,100243.23
2023-10-06T13:50:26.873Z,100250.71
2023-10-06T13:52:54.650Z,100263.77
2023-10-06T13:55:23.650Z,100261.23
2023-10-06T13:57:56.488Z,100262.05
2023-10-06T14:00:30.967Z,100262.58
2023-10-06T14:03:08.490Z,100268.64
2023-10-06T14:05:39.849Z,100270.02
2023-10-06T14:08:08.162Z,100273.66
2023-10-06T14:10:38.823Z,100275.05
2023-10-06T14:13:10.017Z,100272.33
2023-10-06T14:15:46.873Z,100276.74
2023-10-06T14:18:15.485Z,100279.17
2023-10-06T14:20:47.587Z,100282.94
2023-10-06T14:23:16.112Z,100286.13
2023-10-06T14:25:44.289Z,100288.88
2023-10-06T14:28:12.019Z,100288.23
2023-10-06T14:30:44.003Z,100287.23
2023-10-06T14:33:24.153Z,100291.98
2023-10-06T14:36:01.972Z,100296.41
2023-10-06T14:38:34.143Z,100300.46
2023-10-06T14:41:23.425Z,100305.00
2023-10-06T14:44:10.954Z,100311.81
2023-10-06T14:46:40.619Z,100315.13
2023-10-06T14:49:15.217Z,100313.11
2023-10-06T14:51:43.585Z,100312.42
2023-10-06T14:54:12.510Z,100317.17
2023-10-06T14:56:41.005Z,100318.84
2023-10-06T14:59:11.872Z,100323.23
2023-10-06T15:01:41.778Z,100330.08
2023-10-06T15:04:14.585Z,100333.23
2023-10-06T15:07:03.045Z,100332.61
2023-10-06T15:09:31.857Z,100334.55
2023-10-06T15:11:59.573Z,100343.77
2023-10-06T15:14:27.555Z,100347.20
2023-10-06T15:16:55.545Z,100352.94
2023-10-06T15:19:26.753Z,100350.42
2023-10-06T15:21:56.499Z,100348.77
2023-10-06T15:24:24.384Z,100352.34
2023-10-06T15:26:52.658Z,100354.52
2023-10-06T15:29:26.392Z,100356.30
2023-10-06T15:31:54.110Z,100365.95
2023-10-06T15:34:21.748Z,100366.30
2023-10-06T15:36:49.315Z,100366.33
2023-10-06T15:39:20.260Z,100369.13
2023-10-06T15:41:50.162Z,100375.95
2023-10-06T15:44:18.937Z,100382.04
2023-10-06T15:46:46.957Z,100389.17
2023-10-06T15:49:17.391Z,100386.54
2023-10-06T15:51:48.580Z,100386.30
2023-10-06T15:54:17.518Z,100388.38
2023-10-06T15:56:47.647Z,100392.74
2023-10-06T15:59:16.623Z,100392.36
2023-10-06T16:01:45.870Z,100391.66
2023-10-06T16:04:15.900Z,100402.63
2023-10-06T16:06:44.748Z,100401.56
2023-10-06T16:09:17.808Z,100404.33
2023-10-06T16:11:46.418Z,100408.42
2023-10-06T16:14:17.410Z,100409.73
2023-10-06T16:16:47.737Z,100417.43
2023-10-06T16:19:16.032Z,100416.12
2023-10-06T16:21:43.855Z,100413.80
2023-10-06T16:24:13.686Z,100409.39
2023-10-06T16:26:42.326Z,100411.91
2023-10-06T16:29:11.495Z,100415.77
2023-10-06T16:31:39.821Z,100420.15
2023-10-06T16:34:07.828Z,100426.48
2023-10-06T16:36:36.354Z,100429.73
2023-10-06T16:39:17.612Z,100427.91
2023-10-06T16:41:46.160Z,100429.06
2023-10-06T16:44:14.704Z,100430.95
2023-10-06T16:46:42.742Z,100435.60
2023-10-06T16:49:10.807Z,100436.21
2023-10-06T16:51:40.838Z,100440.98
2023-10-06T16:54:11.530Z,100442.77
2023-10-06T16:56:39.471Z,100446.02
2023-10-06T16:59:07.609Z,100449.29
2023-10-06T17:01:36.120Z,100448.88
2023-10-06T17:04:07.734Z,100456.95
2023-10-06T17:06:36.755Z,100452.87
2023-10-06T17:09:15.481Z,100459.56
2023-10-06T17:11:44.460Z,100458.63
2023-10-06T17:14:13.306Z,100457.79
2023-10-06T17:16:43.000Z,100468.05
2023-10-06T17:19:13.544Z,100473.28
2023-10-06T17:21:43.842Z,100474.19
2023-10-06T17:24:12.527Z,100476.18
2023-10-06T17:26:40.500Z,100481.59
2023-10-06T17:29:08.725Z,100485.85
2023-10-06T17:31:36.774Z,100483.67
2023-10-06T17:34:05.898Z,100485.67
2023-10-06T17:36:33.685Z,100489.71
2023-10-06T17:39:03.567Z,100493.63
2023-10-06T17:41:31.499Z,100494.06
2023-10-06T17:43:59.243Z,100496.77
2023-10-06T17:46:27.150Z,100500.48
2023-10-06T17:48:55.115Z,100504.40
2023-10-06T17:51:22.904Z,100507.08
2023-10-06T17:53:50.989Z,100508.94
2023-10-06T17:56:21.400Z,100512.84
2023-10-06T17:58:51.333Z,100516.08
2023-10-06T18:01:20.279Z,100516.16
2023-10-06T18:03:49.117Z,100517.64
2023-10-06T18:06:18.658Z,100521.70
2023-10-06T18:08:46.716Z,100523.88
2023-10-06T18:11:15.739Z,100524.98
2023-10-06T18:13:43.861Z,100531.52
2023-10-06T18:16:11.553Z,100535.95
2023-10-06T18:18:39.395Z,100538.64
2023-10-06T18:21:07.112Z,100541.36
2023-10-06T18:23:34.986Z,100541.30
2023-10-06T18:26:02.620Z,100543.48
2023-10-06T18:28:30.330Z,100548.61
2023-10-06T18:30:58.011Z,100548.88
2023-10-06T18:33:26.052Z,100552.44
2023-10-06T18:35:53.661Z,100553.39
2023-10-06T18:38:21.350Z,100557.43
2023-10-06T18:40:59.918Z,100560.42
2023-10-06T18:43:27.768Z,100567.42
2023-10-06T18:45:57.148Z,100569.56
2023-10-06T18:48:25.062Z,100570.31
2023-10-06T18:50:57.007Z,100577.13
2023-10-06T18:53:25.135Z,100581.50
2023-10-06T18:55:53.805Z,100586.93
2023-10-06T18:58:21.751Z,100584.20
2023-10-06T19:00:50.044Z,100586.16
2023-10-06T19:03:18.067Z,100587.80
2023-10-06T19:05:47.931Z,100588.88
2023-10-06T19:08:16.072Z,100593.27
2023-10-06T19:10:47.274Z,100595.45
2023-10-06T19:13:15.447Z,100598.80
2023-10-06T19:15:43.710Z,100602.83
2023-10-06T19:18:11.432Z,100606.17
2023-10-06T19:20:40.069Z,100610.90
2023-10-06T19:23:11.013Z,100613.04
2023-10-06T19:25:43.379Z,100612.75
2023-10-06T19:28:12.086Z,100617.64
2023-10-06T19:30:40.029Z,100615.64
2023-10-06T19:33:08.053Z,100619.18
2023-10-06T19:35:39.598Z,100621.85
2023-10-06T19:38:09.018Z,100617.91
2023-10-06T19:40:36.819Z,100623.86
2023-10-06T19:43:04.809Z,100625.13
2023-10-06T19:45:32.514Z,100623.27
2023-10-06T19:48:00.181Z,100626.27
2023-10-06T19:50:27.918Z,100629.63
2023-10-06T19:52:55.490Z,100637.45
2023-10-06T19:55:23.323Z,100636.44
2023-10-06T19:57:50.887Z,100640.29
2023-10-06T20:00:27.485Z,100640.84
2023-10-06T20:02:57.011Z,100642.10
2023-10-06T20:05:26.850Z,100644.73
2023-10-06T20:07:54.538Z,100645.48
2023-10-06T20:10:23.211Z,100649.66
2023-10-06T20:12:52.719Z,100645.54
2023-10-06T20:15:20.583Z,100647.30
2023-10-06T20:17:48.325Z,100647.16
2023-10-06T20:20:21.840Z,100648.60
2023-10-06T20:22:51.566Z,100645.69
2023-10-06T20:25:21.023Z,100650.57
2023-10-06T20:27:48.852Z,100654.94
2023-10-06T20:30:23.348Z,100658.27
2023-10-06T20:32:55.592Z,100659.17
2023-10-06T20:35:24.010Z,100658.00
2023-10-06T20:37:51.813Z,100658.90
2023-10-06T20:40:25.889Z,100661.01
2023-10-06T20:42:57.020Z,100664.15
2023-10-06T20:45:28.254Z,100666.77
2023-10-06T20:47:56.723Z,100666.81
2023-10-06T20:50:28.536Z,100669.59
2023-10-06T20:52:57.125Z,100670.46
2023-10-06T20:55:25.398Z,100674.46
2023-10-06T20:57:54.040Z,100676.73
2023-10-06T21:00:24.567Z,100678.33
2023-10-06T21:02:52.509Z,100680.60
2023-10-06T21:05:21.160Z,100678.38
2023-10-06T21:07:49.804Z,100676.67
2023-10-06T21:10:18.857Z,100676.88
2023-10-06T21:12:46.864Z,100679.51
2023-10-06T21:15:15.985Z,100685.56
2023-10-06T21:17:44.235Z,100685.75
2023-10-06T21:20:13.829Z,100688.55
2023-10-06T21:22:41.593Z,100690.48
2023-10-06T21:25:15.199Z,100688.76
2023-10-06T21:27:43.201Z,100688.77
2023-10-06T21:30:17.257Z,100691.20
2023-10-06T21:32:46.121Z,100691.20
2023-10-06T21:35:15.424Z,100686.52
2023-10-06T21:37:43.817Z,100692.58
2023-10-06T21:40:13.234Z,100695.52
2023-10-06T21:42:43.830Z,100698.66
2023-10-06T21:45:12.007Z,100706.82
2023-10-06T21:47:39.724Z,100706.66
2023-10-06T21:50:07.639Z,100705.48
2023-10-06T21:52:35.233Z,100709.15
2023-10-06T21:55:03.589Z,100717.65
2023-10-06T21:57:36.192Z,100720.96
2023-10-06T22:00:12.543Z,100723.58
2023-10-06T22:02:40.259Z,100725.15
2023-10-06T22:05:08.197Z,100722.41
2023-10-06T22:07:35.904Z,100724.34
2023-10-06T22:10:04.006Z,100728.84
2023-10-06T22:12:31.520Z,100724.89
2023-10-06T22:14:59.357Z,100725.06
2023-10-06T22:17:27.002Z,100730.09
2023-10-06T22:19:54.809Z,100732.52
2023-10-06T22:22:22.823Z,100730.45
2023-10-06T22:24:50.518Z,100734.77
2023-10-06T22:27:18.331Z,100736.66
2023-10-06T22:29:46.859Z,100735.79
2023-10-06T22:32:15.588Z,100732.02
2023-10-06T22:34:43.276Z,100738.55
2023-10-06T22:37:19.102Z,100740.96
2023-10-06T22:39:47.793Z,100735.77
2023-10-06T22:42:15.357Z,100734.38
2023-10-06T22:44:42.916Z,100729.38
2023-10-06T22:47:10.571Z,100726.95
2023-10-06T22:49:38.190Z,100726.95
2023-10-06T22:52:05.794Z,100721.58
2023-10-06T22:54:34.360Z,100720.02
2023-10-06T22:57:02.015Z,100724.66
2023-10-06T22:59:29.585Z,100720.86
2023-10-06T23:01:57.306Z,100716.52
2023-10-06T23:04:24.987Z,100721.02
2023-10-06T23:06:52.556Z,100720.13
2023-10-06T23:09:20.097Z,100719.78
2023-10-06T23:11:47.779Z,100714.09
2023-10-06T23:14:16.150Z,100717.52
2023-10-06T23:16:46.759Z,100715.27
2023-10-06T23:19:15.063Z,100720.29
2023-10-06T23:21:42.953Z,100726.29
2023-10-06T23:24:16.014Z,100723.89
2023-10-06T23:26:44.626Z,100723.02
2023-10-06T23:29:13.736Z,100724.73
2023-10-06T23:31:41.728Z,100721.98
2023-10-06T23:34:10.733Z,100715.42
2023-10-06T23:36:38.467Z,100710.92
2023-10-06T23:39:09.991Z,100709.20
2023-10-06T23:41:38.575Z,100711.44
2023-10-06T23:44:08.942Z,100707.13
2023-10-06T23:46:36.797Z,100707.46
2023-10-06T23:49:04.630Z,100709.36
2023-10-06T23:51:33.891Z,100701.27
2023-10-06T23:54:01.537Z,100701.42
2023-10-06T23:56:32.507Z,100704.88
2023-10-06T23:59:00.425Z,100706.23
